Loading…
Loading…
Loading…
Loading…
Loading parcel record…
Hopewell Twp, NJ·Mercer County
Owner email, phone, and authorized agent are available on Pro.
Activity captured from the county clerk's daily feed. Includes deeds, mortgages, and other recorded filings.
| Date | Type | Grantor | Grantee | Book / Page | Instrument |
|---|---|---|---|---|---|
| 2026-04-15 | DISCHARGE OF MORTGAGE | — | — | 1694 / 640 | 2026016066 |
| 2025-11-12 | MORTGAGE | — | — | 11997 / 914 | 2025040440 |
| 2025-02-12 | DEED |
| — |
| — |
| 6582 / 1512 |
| 2025005074 |
| 2022-01-18 | MORTGAGE | — | — | 11703 / 777 | 2022003127 |
| 2021-10-14 | DISCHARGE OF MORTGAGE | — | — | 1632 / 13 | 2021062524 |
| 2021-07-23 | MORTGAGE | — | — | 11642 / 1668 | 2021044327 |
| 2021-07-23 | DEED | — | — | 6449 / 1050 | 2021044326 |
| 2021-02-12 | DEED | — | — | 6430 / 884 | 2021008358 |
| 2020-09-10 | DEED | — | — | 6413 / 1039 | 2020038850 |
| 2019-09-05 | MISC DEED | — | — | 6380 / 284 | 2019038377 |
| 2019-09-05 | DEED | — | — | 6380 / 274 | 2019038376 |
| 2018-02-16 | DEED | — | — | 6317 / 1012 | 2018007251 |
| 2017-09-25 | MISC DEED | — | — | 6301 / 512 | 2017044409 |
| 2017-07-26 | DEED | — | — | 6293 / 1576 | 2017033981 |
| 2017-02-21 | DEED | — | — | 6277 / 74 | 2017008228 |
| 2016-10-27 | DEED | — | — | 6266 / 967 | 2016050784 |
| 2016-04-01 | DEED | — | — | 6245 / 898 | 2016015710 |
| 2015-11-09 | DEED | — | — | 6233 / 752 | 2015050510 |
| 2015-10-13 | DEED | — | — | 6230 / 1800 | 2015046522 |
| 2015-01-23 | DEED | — | — | 6211 / 115 | 2015003202 |
| 2014-07-17 | DEED | — | — | 6197 / 1277 | 2014029296 |
| 2013-06-13 | DEED | — | — | 6171 / 1496 | 2013033086 |
| 2013-03-13 | NOTICE OF LIS PENDENS | — | — | 402 / 1264 | 2013014936 |
| 2012-04-17 | NOTICE OF LIS PENDENS | — | — | 400 / 347 | 2012017282 |
| 2012-03-07 | NOTICE OF LIS PENDENS | — | — | 399 / 201 | 2012005203 |
| 2008-11-24 | DEED-REGULAR/OVER $350,000 | — | — | 5961 / 281 | 2008040098 |
| 2008-05-28 | NOTICE OF LIS PENDENS | — | — | 292 / 151 | 2008014414 |
| 2002-02-21 | DD6 | — | — | 4227 / 178 | 2002010367 |
| 2001-12-17 | DD6 | — | — | 4188 / 89 | 2001054082 |
| 2001-12-17 | DD1 | — | — | 4187 / 262 | 2001053976 |